createdAt,value
2017-10-28T00:00:24.278Z,1019.6
2017-10-28T00:01:04.915Z,1019.59
2017-10-28T00:01:45.235Z,1019.53
2017-10-28T00:02:25.601Z,1019.51
2017-10-28T00:03:06.024Z,1019.52
2017-10-28T00:03:46.395Z,1019.52
2017-10-28T00:04:26.843Z,1019.49
2017-10-28T00:05:07.201Z,1019.5
2017-10-28T00:05:47.652Z,1019.5
2017-10-28T00:06:28.234Z,1019.51
2017-10-28T00:07:08.634Z,1019.44
2017-10-28T00:07:49.194Z,1019.52
2017-10-28T00:08:29.601Z,1019.5
2017-10-28T00:09:10.244Z,1019.49
2017-10-28T00:09:50.510Z,1019.5
2017-10-28T00:10:31.007Z,1019.5
2017-10-28T00:11:11.394Z,1019.5
2017-10-28T00:11:51.770Z,1019.5
2017-10-28T00:12:32.285Z,1019.48
2017-10-28T00:13:12.642Z,1019.5
2017-10-28T00:13:53.026Z,1019.49
2017-10-28T00:14:33.451Z,1019.43
2017-10-28T00:15:13.842Z,1019.48
2017-10-28T00:15:54.249Z,1019.42
2017-10-28T00:16:34.666Z,1019.43
2017-10-28T00:17:15.035Z,1019.42
2017-10-28T00:17:55.464Z,1019.39
2017-10-28T00:18:35.953Z,1019.37
2017-10-28T00:19:16.275Z,1019.38
2017-10-28T00:19:56.713Z,1019.39
2017-10-28T00:20:37.052Z,1019.39
2017-10-28T00:21:17.523Z,1019.35
2017-10-28T00:21:57.925Z,1019.38
2017-10-28T00:22:38.313Z,1019.39
2017-10-28T00:23:18.720Z,1019.36
2017-10-28T00:23:59.156Z,1019.34
2017-10-28T00:24:39.630Z,1019.34
2017-10-28T00:25:20.048Z,1019.3
2017-10-28T00:26:00.468Z,1019.26
2017-10-28T00:26:40.849Z,1019.25
2017-10-28T00:27:21.240Z,1019.28
2017-10-28T00:28:01.695Z,1019.26
2017-10-28T00:28:42.225Z,1019.25
2017-10-28T00:29:22.501Z,1019.23
2017-10-28T00:30:02.829Z,1019.2
2017-10-28T00:30:43.306Z,1019.28
2017-10-28T00:31:23.702Z,1019.24
2017-10-28T00:32:04.060Z,1019.21
2017-10-28T00:32:44.545Z,1019.23
2017-10-28T00:33:24.978Z,1019.15
2017-10-28T00:34:05.548Z,1019.15
2017-10-28T00:34:45.892Z,1019.2
2017-10-28T00:35:26.297Z,1019.16
2017-10-28T00:36:06.728Z,1019.13
2017-10-28T00:36:47.130Z,1019.15
2017-10-28T00:37:27.601Z,1019.14
2017-10-28T00:38:08.025Z,1019.12
2017-10-28T00:38:48.451Z,1019.13
2017-10-28T00:39:28.886Z,1019.17
2017-10-28T00:40:09.308Z,1019.2
2017-10-28T00:40:49.792Z,1019.21
2017-10-28T00:41:30.221Z,1019.15
2017-10-28T00:42:10.620Z,1019.18
2017-10-28T00:42:51.045Z,1019.18
2017-10-28T00:43:31.526Z,1019.19
2017-10-28T00:44:12.045Z,1019.23
2017-10-28T00:44:52.483Z,1019.18
2017-10-28T00:45:32.932Z,1019.17
2017-10-28T00:46:13.412Z,1019.23
2017-10-28T00:46:53.883Z,1019.19
2017-10-28T00:47:34.169Z,1019.21
2017-10-28T00:48:14.674Z,1019.2
2017-10-28T00:48:55.076Z,1019.24
2017-10-28T00:49:35.461Z,1019.21
2017-10-28T00:50:15.942Z,1019.22
2017-10-28T00:50:56.525Z,1019.2
2017-10-28T00:51:36.873Z,1019.16
2017-10-28T00:52:17.300Z,1019.18
2017-10-28T00:52:57.799Z,1019.25
2017-10-28T00:53:38.140Z,1019.18
2017-10-28T00:54:18.606Z,1019.17
2017-10-28T00:54:59.048Z,1019.12
2017-10-28T00:55:39.441Z,1019.1
2017-10-28T00:56:19.931Z,1019.09
2017-10-28T00:57:00.388Z,1019.09
2017-10-28T00:57:40.763Z,1019.09
2017-10-28T00:58:21.256Z,1019.11
2017-10-28T00:59:01.617Z,1019.06
2017-10-28T00:59:42.037Z,1019.02
2017-10-28T01:00:22.473Z,1019.04
2017-10-28T01:01:02.841Z,1019.04
2017-10-28T01:01:43.355Z,1019.03
2017-10-28T01:02:23.709Z,1019
2017-10-28T01:03:04.281Z,1018.98
2017-10-28T01:03:44.929Z,1018.99
2017-10-28T01:04:25.284Z,1019
2017-10-28T01:05:05.781Z,1018.93
2017-10-28T01:05:46.159Z,1018.95
2017-10-28T01:06:26.557Z,1018.93
2017-10-28T01:07:07.018Z,1018.93
2017-10-28T01:07:47.330Z,1018.92
2017-10-28T01:08:27.916Z,1018.93
2017-10-28T01:09:08.300Z,1018.9
2017-10-28T01:09:48.666Z,1018.86
2017-10-28T01:10:29.102Z,1018.89
2017-10-28T01:11:09.580Z,1018.88
2017-10-28T01:11:50.034Z,1018.9
2017-10-28T01:12:30.399Z,1018.91
2017-10-28T01:13:10.914Z,1018.87
2017-10-28T01:13:51.278Z,1018.83
2017-10-28T01:14:31.674Z,1018.83
2017-10-28T01:15:12.074Z,1018.81
2017-10-28T01:15:52.494Z,1018.78
2017-10-28T01:16:32.916Z,1018.77
2017-10-28T01:17:13.316Z,1018.78
2017-10-28T01:17:53.799Z,1018.79
2017-10-28T01:18:34.226Z,1018.81
2017-10-28T01:19:14.668Z,1018.82
2017-10-28T01:19:55.042Z,1018.8
2017-10-28T01:20:35.462Z,1018.78
2017-10-28T01:21:15.973Z,1018.78
2017-10-28T01:21:56.302Z,1018.79
2017-10-28T01:22:36.700Z,1018.79
2017-10-28T01:23:17.115Z,1018.73
2017-10-28T01:23:57.476Z,1018.73
2017-10-28T01:24:37.943Z,1018.78
2017-10-28T01:25:18.305Z,1018.73
2017-10-28T01:25:58.795Z,1018.75
2017-10-28T01:26:39.141Z,1018.74
2017-10-28T01:27:19.547Z,1018.76
2017-10-28T01:28:00.048Z,1018.72
2017-10-28T01:28:40.391Z,1018.68
2017-10-28T01:29:20.785Z,1018.72
2017-10-28T01:30:01.220Z,1018.68
2017-10-28T01:30:41.655Z,1018.66
2017-10-28T01:31:22.053Z,1018.65
2017-10-28T01:32:02.467Z,1018.68
2017-10-28T01:32:42.880Z,1018.64
2017-10-28T01:33:23.250Z,1018.64
2017-10-28T01:34:03.656Z,1018.62
2017-10-28T01:34:44.084Z,1018.64
2017-10-28T01:35:24.590Z,1018.63
2017-10-28T01:36:04.967Z,1018.62
2017-10-28T01:36:45.956Z,1018.64
2017-10-28T01:37:25.755Z,1018.62
2017-10-28T01:38:06.176Z,1018.54
2017-10-28T01:38:46.582Z,1018.51
2017-10-28T01:39:26.993Z,1018.55
2017-10-28T01:40:07.415Z,1018.54
2017-10-28T01:40:47.883Z,1018.51
2017-10-28T01:41:28.288Z,1018.5
2017-10-28T01:42:08.637Z,1018.47
2017-10-28T01:42:49.025Z,1018.43
2017-10-28T01:43:29.472Z,1018.43
2017-10-28T01:44:09.849Z,1018.42
2017-10-28T01:44:50.295Z,1018.48
2017-10-28T01:45:30.688Z,1018.38
2017-10-28T01:46:11.117Z,1018.41
2017-10-28T01:46:51.504Z,1018.37
2017-10-28T01:47:31.909Z,1018.41
2017-10-28T01:48:12.390Z,1018.37
2017-10-28T01:48:52.798Z,1018.34
2017-10-28T01:49:33.225Z,1018.36
2017-10-28T01:50:13.624Z,1018.36
2017-10-28T01:50:54.050Z,1018.28
2017-10-28T01:51:34.452Z,1018.26
2017-10-28T01:52:14.848Z,1018.31
2017-10-28T01:52:55.334Z,1018.22
2017-10-28T01:53:35.779Z,1018.29
2017-10-28T01:54:16.103Z,1018.28
2017-10-28T01:54:56.528Z,1018.21
2017-10-28T01:55:36.994Z,1018.23
2017-10-28T01:56:17.355Z,1018.26
2017-10-28T01:56:57.880Z,1018.21
2017-10-28T01:57:38.268Z,1018.2
2017-10-28T01:58:18.618Z,1018.19
2017-10-28T01:58:59.227Z,1018.22
2017-10-28T01:59:39.644Z,1018.18
2017-10-28T02:00:20.221Z,1018.18
2017-10-28T02:01:00.609Z,1018.14
2017-10-28T02:01:41.052Z,1018.17
2017-10-28T02:02:21.399Z,1018.17
2017-10-28T02:03:01.754Z,1018.15
2017-10-28T02:03:42.184Z,1018.13
2017-10-28T02:04:22.560Z,1018.11
2017-10-28T02:05:03.006Z,1018.06
2017-10-28T02:05:43.534Z,1018.13
2017-10-28T02:06:23.944Z,1018.07
2017-10-28T02:07:04.421Z,1018.06
2017-10-28T02:07:44.793Z,1018.05
2017-10-28T02:08:25.169Z,1018
2017-10-28T02:09:05.561Z,1017.97
2017-10-28T02:09:46.070Z,1017.95
2017-10-28T02:10:26.464Z,1017.96
2017-10-28T02:11:06.944Z,1017.93
2017-10-28T02:11:47.311Z,1018
2017-10-28T02:12:27.750Z,1017.98
2017-10-28T02:13:08.121Z,1018
2017-10-28T02:13:48.556Z,1017.96
2017-10-28T02:14:29.028Z,1017.96
2017-10-28T02:15:09.366Z,1017.96
2017-10-28T02:15:49.809Z,1017.92
2017-10-28T02:16:30.159Z,1017.93
2017-10-28T02:17:10.647Z,1017.93
2017-10-28T02:17:51.005Z,1017.9
2017-10-28T02:18:31.498Z,1017.91
2017-10-28T02:19:11.945Z,1017.94
2017-10-28T02:19:52.438Z,1017.9
2017-10-28T02:20:32.766Z,1017.87
2017-10-28T02:21:13.262Z,1017.91
2017-10-28T02:21:53.639Z,1017.89
2017-10-28T02:22:34.102Z,1017.88
2017-10-28T02:23:14.488Z,1017.89
2017-10-28T02:23:54.937Z,1017.85
2017-10-28T02:24:35.305Z,1017.82
2017-10-28T02:25:15.691Z,1017.78
2017-10-28T02:25:56.169Z,1017.76
2017-10-28T02:26:36.525Z,1017.75
2017-10-28T02:27:17.025Z,1017.74
2017-10-28T02:27:57.447Z,1017.75
2017-10-28T02:28:37.837Z,1017.8
2017-10-28T02:29:18.259Z,1017.82
2017-10-28T02:29:58.685Z,1017.79
2017-10-28T02:30:39.093Z,1017.77
2017-10-28T02:31:19.464Z,1017.73
2017-10-28T02:31:59.946Z,1017.71
2017-10-28T02:32:40.417Z,1017.67
2017-10-28T02:33:20.791Z,1017.64
2017-10-28T02:34:01.190Z,1017.62
2017-10-28T02:34:41.526Z,1017.68
2017-10-28T02:35:21.939Z,1017.6
2017-10-28T02:36:02.353Z,1017.63
2017-10-28T02:36:42.782Z,1017.55
2017-10-28T02:37:23.231Z,1017.54
2017-10-28T02:38:03.620Z,1017.56
2017-10-28T02:38:44.051Z,1017.54
2017-10-28T02:39:24.464Z,1017.5
2017-10-28T02:40:04.852Z,1017.47
2017-10-28T02:40:45.367Z,1017.5
2017-10-28T02:41:25.744Z,1017.55
2017-10-28T02:42:06.202Z,1017.52
2017-10-28T02:42:46.625Z,1017.55
2017-10-28T02:43:27.008Z,1017.53
2017-10-28T02:44:07.490Z,1017.51
2017-10-28T02:44:47.800Z,1017.48
2017-10-28T02:45:28.218Z,1017.49
2017-10-28T02:46:08.644Z,1017.51
2017-10-28T02:46:49.014Z,1017.49
2017-10-28T02:47:29.427Z,1017.52
2017-10-28T02:48:09.824Z,1017.49
2017-10-28T02:48:50.380Z,1017.5
2017-10-28T02:49:30.808Z,1017.49
2017-10-28T02:50:11.321Z,1017.45
2017-10-28T02:50:51.712Z,1017.49
2017-10-28T02:51:32.154Z,1017.5
2017-10-28T02:52:12.542Z,1017.52
2017-10-28T02:52:52.953Z,1017.51
2017-10-28T02:53:33.318Z,1017.53
2017-10-28T02:54:13.753Z,1017.48
2017-10-28T02:54:54.163Z,1017.53
2017-10-28T02:55:34.573Z,1017.47
2017-10-28T02:56:14.878Z,1017.44
2017-10-28T02:56:55.308Z,1017.45
2017-10-28T02:57:35.688Z,1017.42
2017-10-28T02:58:16.152Z,1017.33
2017-10-28T02:58:56.561Z,1017.37
2017-10-28T02:59:36.918Z,1017.34
2017-10-28T03:00:17.336Z,1017.34
2017-10-28T03:00:57.823Z,1017.31
2017-10-28T03:01:38.148Z,1017.32
2017-10-28T03:02:18.533Z,1017.32
2017-10-28T03:02:58.973Z,1017.35
2017-10-28T03:03:39.343Z,1017.32
2017-10-28T03:04:19.788Z,1017.3
2017-10-28T03:05:00.250Z,1017.33
2017-10-28T03:05:40.628Z,1017.3
2017-10-28T03:06:21.095Z,1017.29
2017-10-28T03:07:01.545Z,1017.33
2017-10-28T03:07:41.920Z,1017.3
2017-10-28T03:08:22.338Z,1017.28
2017-10-28T03:09:02.700Z,1017.3
2017-10-28T03:09:43.166Z,1017.29
2017-10-28T03:10:23.581Z,1017.24
2017-10-28T03:11:03.970Z,1017.29
2017-10-28T03:11:44.381Z,1017.25
2017-10-28T03:12:24.807Z,1017.17
2017-10-28T03:13:05.247Z,1017.16
2017-10-28T03:13:45.672Z,1017.14
2017-10-28T03:14:26.139Z,1017.16
2017-10-28T03:15:06.597Z,1017.18
2017-10-28T03:15:46.963Z,1017.16
2017-10-28T03:16:27.347Z,1017.15
2017-10-28T03:17:07.748Z,1017.12
2017-10-28T03:17:48.177Z,1017.11
2017-10-28T03:18:28.623Z,1017.09
2017-10-28T03:19:09.029Z,1017.1
2017-10-28T03:19:49.474Z,1017.09
2017-10-28T03:20:29.926Z,1017.06
2017-10-28T03:21:10.484Z,1017.07
2017-10-28T03:21:50.861Z,1017.07
2017-10-28T03:22:31.437Z,1017.04
2017-10-28T03:23:11.881Z,1017.02
2017-10-28T03:23:52.226Z,1016.98
2017-10-28T03:24:32.599Z,1016.87
2017-10-28T03:25:13.114Z,1016.91
2017-10-28T03:25:53.507Z,1016.87
2017-10-28T03:26:33.936Z,1016.87
2017-10-28T03:27:14.350Z,1016.83
2017-10-28T03:27:54.804Z,1016.82
2017-10-28T03:28:35.243Z,1016.82
2017-10-28T03:29:15.605Z,1016.87
2017-10-28T03:29:56.059Z,1016.87
2017-10-28T03:30:36.440Z,1016.83
2017-10-28T03:31:16.864Z,1016.91
2017-10-28T03:31:57.287Z,1016.89
2017-10-28T03:32:37.711Z,1016.93
2017-10-28T03:33:18.212Z,1016.92
2017-10-28T03:33:58.660Z,1016.92
2017-10-28T03:34:38.988Z,1016.89
2017-10-28T03:35:19.533Z,1016.9
2017-10-28T03:35:59.898Z,1016.87
2017-10-28T03:36:40.332Z,1016.82
2017-10-28T03:37:20.970Z,1016.89
2017-10-28T03:38:01.489Z,1016.81
2017-10-28T03:38:41.962Z,1016.77
2017-10-28T03:39:22.524Z,1016.76
2017-10-28T03:40:02.824Z,1016.72
2017-10-28T03:40:43.238Z,1016.77
2017-10-28T03:41:23.717Z,1016.72
2017-10-28T03:42:04.147Z,1016.7
2017-10-28T03:42:44.588Z,1016.71
2017-10-28T03:43:24.975Z,1016.68
2017-10-28T03:44:05.421Z,1016.67
2017-10-28T03:44:45.868Z,1016.65
2017-10-28T03:45:26.275Z,1016.63
2017-10-28T03:46:06.745Z,1016.57
2017-10-28T03:46:47.116Z,1016.58
2017-10-28T03:47:27.537Z,1016.53
2017-10-28T03:48:08.034Z,1016.55
2017-10-28T03:48:48.469Z,1016.5
2017-10-28T03:49:28.776Z,1016.52
2017-10-28T03:50:09.275Z,1016.47
2017-10-28T03:50:49.688Z,1016.43
2017-10-28T03:51:30.141Z,1016.42
2017-10-28T03:52:10.634Z,1016.39
2017-10-28T03:52:51.000Z,1016.46
2017-10-28T03:53:31.582Z,1016.37
2017-10-28T03:54:11.941Z,1016.44
2017-10-28T03:54:52.380Z,1016.35
2017-10-28T03:55:32.696Z,1016.4
2017-10-28T03:56:13.214Z,1016.36
2017-10-28T03:56:53.665Z,1016.31
2017-10-28T03:57:34.224Z,1016.35
2017-10-28T03:58:14.610Z,1016.37
2017-10-28T03:58:55.201Z,1016.36
2017-10-28T03:59:35.590Z,1016.38
2017-10-28T04:00:16.007Z,1016.41
2017-10-28T04:00:56.406Z,1016.3
2017-10-28T04:01:36.897Z,1016.3
2017-10-28T04:41:10.092Z,1015.64
2017-10-28T04:41:50.239Z,1015.63
2017-10-28T04:42:30.686Z,1015.65
2017-10-28T04:43:11.183Z,1015.61
2017-10-28T04:43:51.637Z,1015.65
2017-10-28T04:44:32.064Z,1015.66
2017-10-28T04:45:12.448Z,1015.7
2017-10-28T04:45:52.882Z,1015.67
2017-10-28T04:46:33.303Z,1015.67
2017-10-28T04:47:13.763Z,1015.64
2017-10-28T04:47:54.141Z,1015.65
2017-10-28T04:48:34.546Z,1015.62
2017-10-28T04:49:15.016Z,1015.64
2017-10-28T04:49:55.476Z,1015.63
2017-10-28T04:50:35.837Z,1015.66
2017-10-28T04:51:16.253Z,1015.67
2017-10-28T04:51:56.710Z,1015.63
2017-10-28T04:52:37.143Z,1015.62
2017-10-28T04:53:17.542Z,1015.61
2017-10-28T04:53:57.936Z,1015.55
2017-10-28T04:54:38.317Z,1015.56
2017-10-28T04:55:18.727Z,1015.56
2017-10-28T04:55:59.196Z,1015.55
2017-10-28T04:56:39.538Z,1015.58
2017-10-28T04:57:19.994Z,1015.58
2017-10-28T04:58:00.325Z,1015.53
2017-10-28T04:58:40.800Z,1015.54
2017-10-28T04:59:21.200Z,1015.57
2017-10-28T05:00:01.569Z,1015.52
2017-10-28T05:00:42.010Z,1015.56
2017-10-28T05:01:22.361Z,1015.56
2017-10-28T05:02:02.833Z,1015.56
2017-10-28T05:02:43.160Z,1015.52
2017-10-28T05:03:23.641Z,1015.53
2017-10-28T05:04:04.053Z,1015.5
2017-10-28T05:04:44.498Z,1015.5
2017-10-28T05:05:24.893Z,1015.51
2017-10-28T05:06:05.330Z,1015.52
2017-10-28T05:06:45.807Z,1015.53
2017-10-28T05:07:26.310Z,1015.53
2017-10-28T05:08:06.681Z,1015.57
2017-10-28T05:08:47.142Z,1015.53
2017-10-28T05:09:27.564Z,1015.52
2017-10-28T05:10:07.869Z,1015.51
2017-10-28T05:10:48.304Z,1015.48
2017-10-28T05:11:28.687Z,1015.51
2017-10-28T05:12:09.194Z,1015.5
2017-10-28T05:12:49.665Z,1015.52
2017-10-28T05:13:30.026Z,1015.45
2017-10-28T05:14:10.458Z,1015.43
2017-10-28T05:14:50.908Z,1015.45
2017-10-28T05:15:31.259Z,1015.41
2017-10-28T05:16:11.850Z,1015.46
2017-10-28T05:16:52.363Z,1015.4
2017-10-28T05:17:32.788Z,1015.41
2017-10-28T05:18:13.172Z,1015.38
2017-10-28T05:18:53.638Z,1015.36
2017-10-28T05:19:34.117Z,1015.41
2017-10-28T05:20:14.548Z,1015.41
2017-10-28T05:20:55.000Z,1015.4
2017-10-28T05:21:35.516Z,1015.36
2017-10-28T05:22:15.901Z,1015.34
2017-10-28T05:22:56.274Z,1015.33
2017-10-28T05:23:36.707Z,1015.34
2017-10-28T05:24:17.047Z,1015.33
2017-10-28T05:24:57.452Z,1015.32
2017-10-28T05:25:37.897Z,1015.31
2017-10-28T05:26:18.228Z,1015.29
2017-10-28T05:26:58.702Z,1015.22
2017-10-28T05:27:39.080Z,1015.22
2017-10-28T05:28:19.502Z,1015.23
2017-10-28T05:28:59.913Z,1015.26
2017-10-28T05:29:40.295Z,1015.19
2017-10-28T05:30:20.771Z,1015.24
2017-10-28T05:31:01.270Z,1015.22
2017-10-28T05:31:41.642Z,1015.19
2017-10-28T05:32:22.136Z,1015.12
2017-10-28T05:33:02.497Z,1015.07
2017-10-28T05:33:43.001Z,1015.04
2017-10-28T05:34:23.389Z,1015.05
2017-10-28T05:35:03.832Z,1014.98
2017-10-28T05:35:44.244Z,1014.99
2017-10-28T05:36:24.683Z,1015.01
2017-10-28T05:37:05.015Z,1015.01
2017-10-28T05:37:45.526Z,1014.96
2017-10-28T05:38:25.986Z,1014.94
2017-10-28T05:39:06.361Z,1014.89
2017-10-28T05:39:46.844Z,1014.85
2017-10-28T05:40:27.266Z,1014.83
2017-10-28T05:41:07.663Z,1014.84
2017-10-28T05:41:48.124Z,1014.81
2017-10-28T05:42:28.508Z,1014.83
2017-10-28T05:43:08.938Z,1014.78
2017-10-28T05:43:49.299Z,1014.82
2017-10-28T05:44:29.776Z,1014.78
2017-10-28T05:45:10.169Z,1014.8
2017-10-28T05:45:50.542Z,1014.79
2017-10-28T05:46:30.955Z,1014.79
2017-10-28T05:47:11.370Z,1014.72
2017-10-28T05:47:51.764Z,1014.75
2017-10-28T05:48:32.191Z,1014.74
2017-10-28T05:49:12.575Z,1014.74
2017-10-28T05:49:53.006Z,1014.72
2017-10-28T05:50:33.429Z,1014.77
2017-10-28T05:51:13.764Z,1014.74
2017-10-28T05:51:54.179Z,1014.78
2017-10-28T05:52:34.726Z,1014.73
2017-10-28T05:53:15.132Z,1014.74
2017-10-28T05:53:55.538Z,1014.68
2017-10-28T05:54:35.920Z,1014.66
2017-10-28T05:55:16.331Z,1014.57
2017-10-28T05:55:56.782Z,1014.52
2017-10-28T05:56:37.193Z,1014.52
2017-10-28T05:57:17.642Z,1014.51
2017-10-28T05:57:58.019Z,1014.53
2017-10-28T05:58:38.445Z,1014.5
2017-10-28T05:59:18.835Z,1014.46
2017-10-28T05:59:59.229Z,1014.39
2017-10-28T06:00:39.642Z,1014.38
2017-10-28T06:01:20.121Z,1014.31
2017-10-28T06:02:00.417Z,1014.27
2017-10-28T06:02:40.853Z,1014.31
2017-10-28T06:03:21.384Z,1014.35
2017-10-28T06:04:01.686Z,1014.3
2017-10-28T06:04:42.255Z,1014.36
2017-10-28T06:05:22.683Z,1014.36
2017-10-28T06:06:03.051Z,1014.4
2017-10-28T06:06:43.442Z,1014.34
2017-10-28T06:07:23.855Z,1014.34
2017-10-28T06:08:04.214Z,1014.37
2017-10-28T06:08:44.680Z,1014.32
2017-10-28T06:09:25.073Z,1014.34
2017-10-28T06:10:05.521Z,1014.38
2017-10-28T06:10:45.959Z,1014.46
2017-10-28T06:11:26.408Z,1014.48
2017-10-28T06:12:06.873Z,1014.42
2017-10-28T06:12:47.306Z,1014.41
2017-10-28T06:13:27.751Z,1014.42
2017-10-28T06:14:08.110Z,1014.46
2017-10-28T06:14:48.567Z,1014.39
2017-10-28T06:15:28.832Z,1014.52
2017-10-28T06:16:09.290Z,1014.56
2017-10-28T06:16:49.678Z,1014.6
2017-10-28T06:17:30.146Z,1014.64
2017-10-28T06:18:10.532Z,1014.65
2017-10-28T06:18:50.939Z,1014.64
2017-10-28T06:19:31.314Z,1014.65
2017-10-28T06:20:11.780Z,1014.7
2017-10-28T06:20:52.218Z,1014.7
2017-10-28T06:21:32.610Z,1014.74
2017-10-28T06:22:13.108Z,1014.75
2017-10-28T06:22:53.465Z,1014.73
2017-10-28T06:23:33.914Z,1014.76
2017-10-28T06:24:14.330Z,1014.73
2017-10-28T06:24:54.730Z,1014.73
2017-10-28T06:25:35.139Z,1014.7
2017-10-28T06:26:15.519Z,1014.72
2017-10-28T06:26:55.985Z,1014.68
2017-10-28T06:27:36.301Z,1014.74
2017-10-28T06:28:16.711Z,1014.76
2017-10-28T06:28:57.154Z,1014.73
2017-10-28T06:29:37.487Z,1014.68
2017-10-28T06:30:17.967Z,1014.7
2017-10-28T06:30:58.319Z,1014.71
2017-10-28T06:31:38.750Z,1014.72
2017-10-28T06:32:19.172Z,1014.77
2017-10-28T06:32:59.480Z,1014.7
2017-10-28T06:33:39.907Z,1014.54
2017-10-28T06:34:20.321Z,1014.5
2017-10-28T06:35:00.741Z,1014.51
2017-10-28T06:35:41.138Z,1014.49
2017-10-28T06:36:21.552Z,1014.56
2017-10-28T06:37:01.908Z,1014.49
2017-10-28T06:37:42.372Z,1014.52
2017-10-28T06:38:22.807Z,1014.55
2017-10-28T06:39:03.291Z,1014.58
2017-10-28T06:39:43.656Z,1014.6
2017-10-28T06:40:24.109Z,1014.55
2017-10-28T06:41:04.539Z,1014.53
2017-10-28T06:41:44.938Z,1014.59
2017-10-28T06:42:25.345Z,1014.56
2017-10-28T06:43:05.866Z,1014.57
2017-10-28T06:43:46.214Z,1014.55
2017-10-28T06:44:26.658Z,1014.55
2017-10-28T06:45:07.171Z,1014.46
2017-10-28T06:45:47.588Z,1014.44
2017-10-28T06:46:27.986Z,1014.46
2017-10-28T06:47:08.397Z,1014.39
2017-10-28T06:47:48.795Z,1014.42
2017-10-28T06:48:29.216Z,1014.38
2017-10-28T06:49:09.625Z,1014.36
2017-10-28T06:49:50.070Z,1014.27
2017-10-28T06:50:30.492Z,1014.18
2017-10-28T06:51:10.865Z,1014.2
2017-10-28T06:51:51.305Z,1014.24
2017-10-28T06:52:31.814Z,1014.3
2017-10-28T06:53:12.165Z,1014.29
2017-10-28T06:53:52.561Z,1014.28
2017-10-28T06:54:33.001Z,1014.25
2017-10-28T06:55:13.356Z,1014.24
2017-10-28T06:55:53.888Z,1014.29
2017-10-28T06:56:34.218Z,1014.3
2017-10-28T06:57:14.651Z,1014.28
2017-10-28T06:57:55.013Z,1014.21
2017-10-28T06:58:35.538Z,1014.23
2017-10-28T06:59:15.993Z,1014.26
2017-10-28T06:59:56.433Z,1014.23
2017-10-28T07:00:36.809Z,1014.27
2017-10-28T07:01:17.181Z,1014.3
2017-10-28T07:01:57.524Z,1014.28
2017-10-28T07:02:37.951Z,1014.29
2017-10-28T07:03:18.552Z,1014.19
2017-10-28T07:03:59.654Z,1014.25
2017-10-28T07:04:40.090Z,1014.28
2017-10-28T07:05:21.449Z,1014.29
2017-10-28T07:06:01.909Z,1014.22
2017-10-28T07:06:42.401Z,1014.25
2017-10-28T07:07:22.729Z,1014.24
2017-10-28T07:08:03.126Z,1014.33
2017-10-28T07:08:43.577Z,1014.29
2017-10-28T07:09:23.982Z,1014.3
2017-10-28T07:10:04.429Z,1014.29
2017-10-28T07:10:44.871Z,1014.34
2017-10-28T07:11:25.222Z,1014.24
2017-10-28T07:12:05.659Z,1014.34
2017-10-28T07:12:48.565Z,1014.4
2017-10-28T07:13:28.951Z,1014.41
2017-10-28T07:14:10.369Z,1014.41
2017-10-28T07:14:51.389Z,1014.48
2017-10-28T07:15:31.937Z,1014.37
2017-10-28T07:16:12.246Z,1014.43
2017-10-28T07:16:53.135Z,1014.41
2017-10-28T07:17:33.573Z,1014.35
2017-10-28T07:18:14.139Z,1014.29
2017-10-28T07:18:54.477Z,1014.34
2017-10-28T07:19:35.013Z,1014.21
2017-10-28T07:20:15.986Z,1014.28
2017-10-28T07:20:57.141Z,1014.09
2017-10-28T07:21:38.417Z,1014.2
2017-10-28T07:22:18.918Z,1014.1
2017-10-28T07:23:00.333Z,1014.12
2017-10-28T07:23:40.762Z,1014.19
2017-10-28T07:24:24.154Z,1014.07
2017-10-28T07:25:04.537Z,1014.09
2017-10-28T07:25:45.045Z,1014.04
2017-10-28T07:26:25.509Z,1014.11
2017-10-28T07:27:06.207Z,1013.92
2017-10-28T07:27:47.010Z,1014.02
2017-10-28T07:28:27.415Z,1014.01
2017-10-28T07:29:08.542Z,1014.07
2017-10-28T07:29:49.103Z,1014.12
2017-10-28T07:30:29.592Z,1014.07
2017-10-28T07:31:09.895Z,1014.03
2017-10-28T07:31:50.322Z,1014.02
2017-10-28T07:32:30.892Z,1013.98
2017-10-28T07:33:11.124Z,1013.87
2017-10-28T07:33:51.967Z,1013.94
2017-10-28T07:34:32.302Z,1013.89
2017-10-28T07:35:12.777Z,1013.96
2017-10-28T07:35:53.716Z,1013.91
2017-10-28T07:36:34.205Z,1014.02
2017-10-28T07:37:15.909Z,1013.99
2017-10-28T07:37:56.321Z,1013.98
2017-10-28T07:38:41.403Z,1013.96
2017-10-28T07:39:21.920Z,1013.88
2017-10-28T07:40:02.640Z,1013.91
2017-10-28T07:40:43.075Z,1013.92
2017-10-28T07:41:23.485Z,1013.82
2017-10-28T07:42:04.009Z,1013.91
2017-10-28T07:42:44.411Z,1013.97
2017-10-28T07:43:24.854Z,1014.03
2017-10-28T07:44:05.205Z,1014.04
2017-10-28T07:44:45.700Z,1014.03
2017-10-28T07:45:26.169Z,1014.04
2017-10-28T07:46:06.556Z,1013.97
2017-10-28T07:46:46.960Z,1013.98
2017-10-28T07:47:27.472Z,1014.04
2017-10-28T07:48:07.946Z,1014.03
2017-10-28T07:48:48.807Z,1014
2017-10-28T07:49:29.287Z,1013.99
2017-10-28T07:50:09.787Z,1013.93
2017-10-28T07:50:50.197Z,1013.92
2017-10-28T07:51:32.653Z,1013.88
2017-10-28T07:52:14.012Z,1013.92
2017-10-28T07:52:54.563Z,1013.92
2017-10-28T07:53:35.298Z,1014
2017-10-28T07:54:17.260Z,1014.13
2017-10-28T07:54:56.947Z,1014.16
2017-10-28T07:55:37.461Z,1014.18
2017-10-28T07:56:17.872Z,1014.2
2017-10-28T07:56:58.274Z,1014.08
2017-10-28T07:57:39.538Z,1014.09
2017-10-28T07:58:19.939Z,1014.12
2017-10-28T07:59:01.060Z,1014.18
2017-10-28T07:59:41.570Z,1014.2
2017-10-28T08:00:21.991Z,1014.19
2017-10-28T08:01:02.561Z,1014.17
2017-10-28T08:01:42.953Z,1014.21
2017-10-28T08:02:24.021Z,1014.24
2017-10-28T08:03:04.773Z,1014.24
2017-10-28T08:03:44.993Z,1014.3
2017-10-28T08:04:26.341Z,1014.3
2017-10-28T08:05:07.313Z,1014.4
2017-10-28T08:05:47.799Z,1014.43
2017-10-28T08:06:28.871Z,1014.44
2017-10-28T08:07:09.317Z,1014.46
2017-10-28T08:07:49.755Z,1014.53
2017-10-28T08:08:30.700Z,1014.5
2017-10-28T08:09:11.964Z,1014.42
2017-10-28T08:09:52.356Z,1014.52
2017-10-28T08:10:32.818Z,1014.48
2017-10-28T08:11:13.551Z,1014.52
2017-10-28T08:11:54.691Z,1014.55
2017-10-28T08:12:35.659Z,1014.54
2017-10-28T08:13:16.808Z,1014.62
2017-10-28T08:13:57.940Z,1014.57
2017-10-28T08:14:39.634Z,1014.59
2017-10-28T08:15:20.440Z,1014.61
2017-10-28T08:16:01.185Z,1014.46
2017-10-28T08:16:42.213Z,1014.57
2017-10-28T08:17:23.736Z,1014.59
2017-10-28T08:18:05.414Z,1014.58
2017-10-28T08:18:46.328Z,1014.63
2017-10-28T08:19:27.857Z,1014.54
2017-10-28T08:20:09.283Z,1014.64
2017-10-28T08:20:49.769Z,1014.63
2017-10-28T08:21:31.756Z,1014.42
2017-10-28T08:22:12.195Z,1014.59
2017-10-28T08:22:53.951Z,1014.56
2017-10-28T08:23:34.237Z,1014.57
2017-10-28T08:24:15.288Z,1014.55
2017-10-28T08:24:57.514Z,1014.52
2017-10-28T08:31:12.427Z,1014.55
2017-10-28T08:32:05.419Z,1014.45
2017-10-28T08:34:34.470Z,1014.11
2017-10-28T08:35:18.953Z,1013.89
2017-10-28T08:35:59.461Z,1013.8
2017-10-28T08:36:39.887Z,1013.77
2017-10-28T08:37:22.028Z,1013.77
2017-10-28T08:38:02.434Z,1013.86
2017-10-28T08:38:43.767Z,1013.88
2017-10-28T08:39:25.129Z,1013.74
2017-10-28T08:40:05.829Z,1013.78
2017-10-28T08:40:46.404Z,1013.73
2017-10-28T08:41:26.861Z,1013.64
2017-10-28T08:42:07.590Z,1013.42
2017-10-28T08:42:49.532Z,1013.5
2017-10-28T08:43:30.480Z,1013.35
2017-10-28T08:44:11.003Z,1013.24
2017-10-28T08:44:52.376Z,1013.32
2017-10-28T08:45:32.740Z,1013.31
2017-10-28T08:46:13.257Z,1013.26
2017-10-28T08:46:53.713Z,1013.3
2017-10-28T08:47:34.015Z,1013.34
2017-10-28T08:48:15.022Z,1013.35
2017-10-28T08:48:56.663Z,1013.51
2017-10-28T08:49:37.142Z,1013.54
2017-10-28T08:50:18.006Z,1013.36
2017-10-28T08:50:58.444Z,1013.5
2017-10-28T08:51:39.072Z,1013.37
2017-10-28T08:52:19.459Z,1013.37
2017-10-28T08:53:00.006Z,1013.29
2017-10-28T08:53:42.438Z,1013.35
2017-10-28T08:54:22.851Z,1013.17
2017-10-28T08:55:03.410Z,1013.45
2017-10-28T08:55:43.796Z,1013.47
2017-10-28T08:56:24.261Z,1013.41
2017-10-28T08:57:04.748Z,1013.48
2017-10-28T08:57:46.786Z,1013.46
2017-10-28T08:58:29.744Z,1013.59